NCAR-RAP Real-Time Weather Data

Output produced by METARs form (10 April 2020  06:29 UTC)
found at http://weather.rap.ucar.edu/surface/
 
KPSC 100553Z AUTO 13003KT 10SM CLR 14/M02 A2993 RMK AO2 SLP133 T01391017 10250 20106 50002
KPSC 100453Z AUTO 17005KT 10SM CLR 15/M01 A2993 RMK AO2 SLP135 T01501006
KPSC 100353Z 19006KT 10SM CLR 18/M01 A2993 RMK AO2 SLP136 T01781011
KPSC 100253Z 16007KT 10SM CLR 21/M04 A2992 RMK AO2 SLP132 T02111044 56016
KPSC 100153Z 15007KT 10SM CLR 23/M06 A2993 RMK AO2 SLP135 T02331056
KPSC 100053Z 00000KT 10SM CLR 24/M09 A2995 RMK AO2 SLP141 T02441089
KPSC 092353Z 23004KT 10SM CLR 24/M07 A2997 RMK AO2 SLP149 T02441072 10250 20150 56027
KPSC 092253Z 28005KT 10SM CLR 24/M03 A2999 RMK AO2 SLP156 T02441033
KPSC 092153Z VRB03KT 10SM CLR 23/M02 A3002 RMK AO2 SLP166 T02331022
KPSC 092053Z VRB03KT 10SM CLR 22/M01 A3005 RMK AO2 SLP175 T02221011 58030
KPSC 091953Z 00000KT 10SM CLR 21/01 A3009 RMK AO2 SLP188 T02060006
KPSC 091853Z VRB04KT 10SM CLR 18/01 A3011 RMK AO2 SLP197 T01830011
KPSC 091753Z VRB03KT 10SM CLR 15/01 A3014 RMK AO2 SLP206 T01500006 10156 20006 57012
KPSC 091653Z 00000KT 10SM CLR 13/00 A3015 RMK AO2 SLP210 T01280000
KPSC 091553Z 00000KT 10SM CLR 09/M01 A3016 RMK AO2 SLP215 T00891011
KPSC 091453Z 00000KT 10SM CLR 05/01 A3017 RMK AO2 SLP219 T00500006 53001
KPSC 091353Z 36003KT 10SM CLR 01/M02 A3017 RMK AO2 SLP217 T00061017
KPSC 091253Z 00000KT 10SM CLR 01/M02 A3017 RMK AO2 SLP216 T00061017
KPSC 091153Z AUTO 00000KT 10SM CLR 02/M01 A3017 RMK AO2 SLP217 T00171011 10089 20011 53001
KPSC 091053Z AUTO 02003KT 10SM CLR 01/M01 A3016 RMK AO2 SLP215 T00111011
KPSC 090953Z AUTO 00000KT 10SM CLR 03/00 A3017 RMK AO2 SLP217 T00330000